Relevés horaires Spa / La Sauveniere (Belgique)


Relevés horaires à Spa / La Sauveniere - Jeudi 08 Avr. 2021
Heure UTC1 Température [°C] Vent [km/h] Hum. [%] Pres.4 [hPa] Visi. [Km] Nébu. [octa] Préc.5 [mm] Cond.
2m. Res. Ros. Dir.2 Vit. Moy. Raf.3
23:00 2.4 0.3 -3.5 S 7.4 7.4 11.1 65 1020(-1.7/3h) 35 0/8 -- --
22:00 2.6 0.5 -3.7 S 7.4 7.4 11.1 63 1020.6(-1.1/3h) 40 0/8 -- --
21:00 2.7 1.2 -4.0 SSO 5.6 5.6 9.3 61 1021.1(-1.0/3h) 45 0/8 -- --
20:00 2.1 0.5 -4.2 S 5.6 5.6 7.4 63 1021.9(-0.9/3h) 45 0/8 -- --
19:00 1.9 0.3 -4.4 S 5.6 5.6 5.6 63 1022(-1.2/3h) 45 0/8 -- --
18:00 4.5 4.5 -2.7 SO 3.7 9.3 14.8 59 1021.8(-1.3/3h) 40 0/8 0/12h
--
17:00 5.6 4.5 -5.1 OSO 5.6 7.4 11.1 46 1022.1(-1.6/3h) 30 0/8 -- --
16:00 5.6 4 -5.1 SO 7.4 7.4 11.1 46 1022.4(-1.9/3h) 30 0/8 -- --
15:00 5.3 4.2 -5.1 OSO 5.6 9.3 14.8 47 1023(-2.0/3h) 30 0/8 -- --
14:00 4.4 2.1 -6.5 SO 9.3 9.3 14.8 45 1024.1(-1.3/3h) 29 2/8 -- --
13:00 3.9 3.9 -6.2 OSO 3.7 7.4 13.0 48 1024.8(-0.9/3h) 22 8/8 -- --
12:00 2.7 0.6 -7.8 SO 7.4 9.3 14.8 46 1025.6(-0.6/3h) 29 7/8 0/6h
--
11:00 1.8 -0.4 -7.5 OSO 7.4 9.3 13.0 50 1026.1(0.0/3h) 22 8/8 -- --
10:00 1.6 1.6 -7.8 O 3.7 5.6 11.1 50 1026.3(0.5/3h) 30 4/8 -- --
09:00 1.2 -0.5 -7.9 O 5.6 7.4 11.1 51 1026.6(1.3/3h) 27 7/8 -- --
08:00 0.7 -1.1 -7.5 OSO 5.6 5.6 9.3 54 1026.3(1.2/3h) 30 0/8 -- --
07:00 -1.0 -3 -6.3 SSO 5.6 5.6 7.4 67 1026.3(0.9/3h) 24 0/8 -- --
06:00 -2.9 -5.2 -6.6 SSO 5.6 5.6 9.3 76 1026.1(0.5/3h) 30 0/8 0/12h
--
05:00 -2.0 -4.1 -5.7 SO 5.6 5.6 7.4 76 1025.7(0.2/3h) 30 0/8 -- --
04:00 -1.7 -1.7 -4.9 OSO 3.7 3.7 7.4 79 1025.5(0.3/3h) 27 8/8 -- --
03:00 -1.7 -1.7 -4.1 SE 1.9 5.6 9.3 84 1025.3(0.2/3h) 28 8/8 -- --
02:00 -1.4 -3.5 -4.4 OSO 5.6 5.6 9.3 80 1025.3(0.5/3h) 30 8/8 -- --
01:00 -1.5 -1.5 -4.2 OSO 3.7 3.7 7.4 82 1025.1(0.7/3h) 26 8/8 -- Ciel clair
00:00 -1.3 -1.3 -4.5 O 3.7 9.3 20.4 79 1025(0.8/3h) 30 8/8 0/6h
0/24h
--

1 Coordinated Universal Time. Actuellement il est 12:00 locale et 10:00 UTC.

2 Le vent souffle depuis la direction indiquée vers la direction oposée.

3 Les rafales max. sont disponible 40 min après l'heure du relevé.

4 Pour les stations d'altitude (plus de 600m) le géopotentiel du niveau le plus proche de la pression obligatoire est indiqué.

5 Les stations disposant d'un diffuseur peuvent indiquer "trace". Cela signifie que des précipitations ont touchés le sol mais que la quantité est inférieure à 0.1 mm.

Récapitulatif de la journée
Température [°C] Vent [km/h] Ensoleillement4 [h] Precipitations totale5 [mm] Pression [Hpa]
Min1 Max.2 Moy.3 Max. Min Max.
-3.1 6.1 6.8 20.4 0 h 0 min 0 1020.0 1026.6

1 Température minimale relevée entre 18:00 UTC la veille et 18:00 UTC le jour donné.

2 Température maximale relevée entre 06:00 UTC le jour donné et 06:00 UTC le lendemain.

3 Vent moyen de la journée basé sur les relevés horaires.

4 Ensoleillement en heures relevé entre 06:00 UTC la veille et 06:00 UTC le jour donné.

5 Précipitations totales tombées entre 06:00 UTC la jour donné et 06:00 UTC le lendemain.

Graphiques horaires